This is the latest recevied weather packets stored in our database for station/object DL9SEC-13. If no packets are shown the sender has not sent any weather packets the latest 10 day(s).
| Time | Temp. | Humidity | Pressure | Rain* | Wind** | Luminosity | Snow |
|---|---|---|---|---|---|---|---|
| 1777333203 | 8.89° C | 62% | 1020.5 hPa | 0 mm | - | - | - |
| 1777332303 | 9.44° C | 61% | 1020.6 hPa | 0 mm | - | - | - |
| 1777331403 | 10° C | 59% | 1020.7 hPa | 0 mm | - | - | - |
| 1777330504 | 10.56° C | 56% | 1020.8 hPa | 0 mm | - | - | - |
| 1777329603 | 10.56° C | 59% | 1020.7 hPa | 0 mm | - | - | - |
| 1777328703 | 11.11° C | 56% | 1021 hPa | 0 mm | - | - | - |
| 1777327803 | 11.11° C | 58% | 1021 hPa | 0 mm | - | - | - |
| 1777326903 | 11.67° C | 55% | 1021.1 hPa | 0 mm | - | - | - |
| 1777326003 | 11.67° C | 58% | 1021.1 hPa | 0 mm | - | - | - |
| 1777325103 | 12.22° C | 54% | 1021.1 hPa | 0 mm | - | - | - |
| 1777324204 | 11.67° C | 57% | 1021.2 hPa | 0 mm | - | - | - |
| 1777323303 | 12.22° C | 56% | 1021.3 hPa | 0 mm | - | - | - |
| 1777322403 | 12.22° C | 57% | 1021.4 hPa | 0 mm | - | - | - |
| 1777321503 | 12.22° C | 56% | 1021.4 hPa | 0 mm | - | - | - |
| 1777320603 | 12.22° C | 54% | 1021.5 hPa | 0 mm | - | - | - |
| 1777319703 | 12.78° C | 54% | 1021.5 hPa | 0 mm | - | - | - |
| 1777318803 | 12.78° C | 53% | 1021.6 hPa | 0 mm | - | - | - |
| 1777317903 | 13.33° C | 52% | 1021.6 hPa | 0 mm | - | - | - |
| 1777317004 | 13.33° C | 52% | 1021.4 hPa | 0 mm | - | - | - |
| 1777316104 | 13.89° C | 52% | 1021.4 hPa | 0 mm | - | - | - |
| 1777315203 | 15° C | 48% | 1021.3 hPa | 0 mm | - | - | - |
| 1777314303 | 16.11° C | 44% | 1021.2 hPa | 0 mm | - | - | - |
| 1777313403 | 17.22° C | 42% | 1021.1 hPa | 0 mm | - | - | - |
| 1777312502 | 18.89° C | 37% | 1021 hPa | 0 mm | - | - | - |
| 1777311603 | 20.56° C | 32% | 1021 hPa | 0 mm | - | - | - |
* Rain latest hour (hover to see other rain measurements)
** Current wind speed in m/s (hover to see current wind gust speed)